createdAt,value
2023-04-07T00:00:35.160Z,100036.44
2023-04-07T00:03:02.580Z,100037.13
2023-04-07T00:05:29.292Z,100043.97
2023-04-07T00:07:57.418Z,100044.06
2023-04-07T00:10:24.927Z,100042.38
2023-04-07T00:12:51.697Z,100044.19
2023-04-07T00:15:18.300Z,100049.25
2023-04-07T00:17:44.890Z,100049.84
2023-04-07T00:20:11.837Z,100048.91
2023-04-07T00:22:38.731Z,100052.19
2023-04-07T00:25:05.705Z,100054.66
2023-04-07T00:27:32.235Z,100060.66
2023-04-07T00:29:58.867Z,100069.34
2023-04-07T00:32:25.561Z,100069.44
2023-04-07T00:34:52.301Z,100070.28
2023-04-07T00:37:19.502Z,100074.53
2023-04-07T00:39:46.887Z,100075.41
2023-04-07T00:42:13.436Z,100080.56
2023-04-07T00:44:40.083Z,100083.16
2023-04-07T00:47:06.724Z,100088.28
2023-04-07T00:49:33.359Z,100077.31
2023-04-07T00:52:00.126Z,100083.16
2023-04-07T00:54:26.767Z,100083.94
2023-04-07T00:56:53.712Z,100092.31
2023-04-07T00:59:22.058Z,100093.69
2023-04-07T01:01:56.002Z,100095.22
2023-04-07T01:04:31.729Z,100107.16
2023-04-07T01:07:02.448Z,100106.88
2023-04-07T01:09:41.444Z,100106.69
2023-04-07T01:12:12.609Z,100116.03
2023-04-07T01:14:46.185Z,100125.34
2023-04-07T01:17:14.524Z,100117.50
2023-04-07T01:19:43.792Z,100119.16
2023-04-07T01:22:15.594Z,100125.06
2023-04-07T01:25:01.213Z,100125.72
2023-04-07T01:27:41.122Z,100128.00
2023-04-07T01:30:10.544Z,100132.00
2023-04-07T01:32:38.019Z,100131.91
2023-04-07T01:35:06.332Z,100133.47
2023-04-07T01:37:33.579Z,100146.94
2023-04-07T01:40:00.210Z,100142.63
2023-04-07T01:42:27.559Z,100148.50
2023-04-07T01:44:54.579Z,100143.22
2023-04-07T01:47:21.276Z,100149.09
2023-04-07T01:49:48.514Z,100154.97
2023-04-07T01:52:15.726Z,100154.88
2023-04-07T01:54:42.965Z,100158.22
2023-04-07T01:57:09.596Z,100156.38
2023-04-07T01:59:36.137Z,100164.91
2023-04-07T02:02:02.981Z,100165.66
2023-04-07T02:04:29.649Z,100168.09
2023-04-07T02:06:59.538Z,100179.91
2023-04-07T02:09:27.466Z,100178.09
2023-04-07T02:11:56.254Z,100183.09
2023-04-07T02:14:24.455Z,100182.19
2023-04-07T02:16:52.395Z,100183.84
2023-04-07T02:19:19.278Z,100186.31
2023-04-07T02:21:46.655Z,100196.44
2023-04-07T02:24:13.283Z,100194.63
2023-04-07T02:26:39.943Z,100195.41
2023-04-07T02:29:06.991Z,100207.25
2023-04-07T02:31:33.667Z,100210.56
2023-04-07T02:34:00.287Z,100210.44
2023-04-07T02:36:27.245Z,100215.50
2023-04-07T02:38:53.904Z,100212.94
2023-04-07T02:41:21.458Z,100212.09
2023-04-07T02:43:48.074Z,100218.00
2023-04-07T02:46:15.473Z,100211.13
2023-04-07T02:48:43.194Z,100223.84
2023-04-07T02:51:09.811Z,100231.44
2023-04-07T02:53:36.403Z,100233.06
2023-04-07T02:56:03.057Z,100242.41
2023-04-07T02:58:29.701Z,100241.44
2023-04-07T03:00:56.404Z,100243.22
2023-04-07T03:03:23.234Z,100241.44
2023-04-07T03:05:49.993Z,100253.47
2023-04-07T03:08:16.705Z,100246.13
2023-04-07T03:10:44.016Z,100250.91
2023-04-07T03:13:12.741Z,100249.38
2023-04-07T03:15:39.423Z,100256.25
2023-04-07T03:18:06.086Z,100254.34
2023-04-07T03:20:32.714Z,100266.28
2023-04-07T03:22:59.253Z,100265.59
2023-04-07T03:25:27.646Z,100268.34
2023-04-07T03:27:54.276Z,100270.97
2023-04-07T03:30:20.978Z,100271.94
2023-04-07T03:32:47.566Z,100276.94
2023-04-07T03:35:14.184Z,100285.47
2023-04-07T03:37:40.901Z,100295.81
2023-04-07T03:40:07.872Z,100302.75
2023-04-07T03:42:34.576Z,100330.28
2023-04-07T03:45:01.202Z,100320.22
2023-04-07T03:47:27.802Z,100317.59
2023-04-07T03:49:54.403Z,100322.59
2023-04-07T03:52:21.032Z,100318.22
2023-04-07T03:54:47.580Z,100326.81
2023-04-07T03:57:14.236Z,100324.88
2023-04-07T03:59:41.449Z,100326.50
2023-04-07T04:02:08.098Z,100333.47
2023-04-07T04:04:34.952Z,100340.56
2023-04-07T04:07:01.886Z,100334.59
2023-04-07T04:09:28.511Z,100341.53
2023-04-07T04:11:55.188Z,100343.19
2023-04-07T04:14:21.801Z,100344.03
2023-04-07T04:16:48.425Z,100341.53
2023-04-07T04:19:15.089Z,100348.38
2023-04-07T04:21:41.685Z,100345.69
2023-04-07T04:24:08.306Z,100358.38
2023-04-07T04:26:34.895Z,100359.44
2023-04-07T04:29:03.260Z,100364.81
2023-04-07T04:31:29.951Z,100367.38
2023-04-07T04:33:56.753Z,100365.69
2023-04-07T04:36:23.275Z,100369.19
2023-04-07T04:38:49.918Z,100368.75
2023-04-07T04:41:16.540Z,100380.06
2023-04-07T04:43:43.188Z,100386.00
2023-04-07T04:46:09.718Z,100383.53
2023-04-07T04:48:36.520Z,100386.97
2023-04-07T04:51:03.190Z,100382.69
2023-04-07T04:53:29.898Z,100387.75
2023-04-07T04:55:56.545Z,100391.03
2023-04-07T04:58:23.096Z,100397.09
2023-04-07T05:00:49.656Z,100400.63
2023-04-07T05:03:17.026Z,100402.34
2023-04-07T05:05:47.382Z,100406.63
2023-04-07T05:08:13.926Z,100405.09
2023-04-07T05:10:42.738Z,100410.47
2023-04-07T05:13:09.348Z,100409.22
2023-04-07T05:15:36.227Z,100415.63
2023-04-07T05:18:05.599Z,100422.59
2023-04-07T05:20:32.186Z,100421.22
2023-04-07T05:22:58.723Z,100415.72
2023-04-07T05:25:25.289Z,100416.78
2023-04-07T05:27:51.847Z,100423.50
2023-04-07T05:30:18.482Z,100423.31
2023-04-07T05:32:45.058Z,100427.56
2023-04-07T05:35:11.778Z,100429.50
2023-04-07T05:37:38.489Z,100428.75
2023-04-07T05:40:05.574Z,100430.69
2023-04-07T05:42:32.150Z,100431.59
2023-04-07T05:44:59.148Z,100434.16
2023-04-07T05:47:26.074Z,100430.84
2023-04-07T05:49:52.856Z,100444.97
2023-04-07T05:52:19.505Z,100444.28
2023-04-07T05:54:46.139Z,100439.53
2023-04-07T05:57:12.834Z,100436.47
2023-04-07T05:59:39.465Z,100445.09
2023-04-07T06:02:06.200Z,100440.16
2023-04-07T06:04:34.141Z,100452.34
2023-04-07T06:07:01.295Z,100443.78
2023-04-07T06:09:27.882Z,100442.22
2023-04-07T06:11:54.476Z,100443.97
2023-04-07T06:14:21.176Z,100450.75
2023-04-07T06:16:47.817Z,100451.56
2023-04-07T06:19:14.420Z,100452.34
2023-04-07T06:21:41.187Z,100457.56
2023-04-07T06:24:07.996Z,100463.75
2023-04-07T06:26:34.761Z,100465.69
2023-04-07T06:29:01.683Z,100457.16
2023-04-07T06:31:28.293Z,100465.16
2023-04-07T06:33:54.850Z,100461.16
2023-04-07T06:36:21.924Z,100455.59
2023-04-07T06:38:48.570Z,100455.13
2023-04-07T06:41:17.145Z,100453.47
2023-04-07T06:43:44.276Z,100458.81
2023-04-07T06:46:11.026Z,100460.63
2023-04-07T06:48:37.603Z,100462.38
2023-04-07T06:51:04.352Z,100462.47
2023-04-07T06:53:31.034Z,100465.19
2023-04-07T06:56:07.619Z,100465.44
2023-04-07T06:58:34.880Z,100461.31
2023-04-07T07:01:02.108Z,100462.25
2023-04-07T07:03:29.602Z,100460.69
2023-04-07T07:05:59.249Z,100465.16
2023-04-07T07:08:26.426Z,100469.66
2023-04-07T07:10:53.235Z,100456.19
2023-04-07T07:13:20.280Z,100454.63
2023-04-07T07:15:46.974Z,100442.69
2023-04-07T07:18:13.499Z,100453.00
2023-04-07T07:20:40.265Z,100455.88
2023-04-07T07:23:06.811Z,100446.69
2023-04-07T07:25:33.460Z,100443.41
2023-04-07T07:28:00.121Z,100429.75
2023-04-07T07:30:26.897Z,100436.81
2023-04-07T07:32:53.936Z,100433.50
2023-04-07T07:35:21.152Z,100428.34
2023-04-07T07:37:47.787Z,100422.47
2023-04-07T07:40:14.910Z,100423.50
2023-04-07T07:42:41.464Z,100431.38
2023-04-07T07:45:08.682Z,100427.22
2023-04-07T07:47:37.801Z,100434.22
2023-04-07T07:50:05.118Z,100424.06
2023-04-07T07:52:31.700Z,100429.41
2023-04-07T07:54:58.308Z,100427.88
2023-04-07T07:57:24.835Z,100423.72
2023-04-07T07:59:51.449Z,100429.94
2023-04-07T08:02:18.089Z,100411.16
2023-04-07T08:04:44.941Z,100375.94
2023-04-07T08:07:12.038Z,100382.09
2023-04-07T08:09:38.679Z,100392.44
2023-04-07T08:12:05.238Z,100395.88
2023-04-07T08:14:31.821Z,100394.25
2023-04-07T08:16:58.544Z,100395.22
2023-04-07T08:19:25.260Z,100373.03
2023-04-07T08:21:51.848Z,100380.81
2023-04-07T08:24:18.505Z,100377.44
2023-04-07T08:26:45.762Z,100366.22
2023-04-07T08:29:12.408Z,100334.31
2023-04-07T08:31:39.053Z,100351.59
2023-04-07T08:34:05.678Z,100343.00
2023-04-07T08:36:32.559Z,100342.22
2023-04-07T08:39:01.246Z,100333.72
2023-04-07T08:41:30.620Z,100335.53
2023-04-07T08:43:57.987Z,100333.91
2023-04-07T08:46:25.772Z,100283.06
2023-04-07T08:48:52.800Z,100297.84
2023-04-07T08:51:27.419Z,100274.63
2023-04-07T08:53:54.567Z,100289.31
2023-04-07T08:56:22.025Z,100279.88
2023-04-07T08:58:49.029Z,100285.94
2023-04-07T09:01:16.644Z,100288.56
2023-04-07T09:03:44.725Z,100271.31
2023-04-07T09:06:11.989Z,100285.19
2023-04-07T09:08:38.584Z,100282.66
2023-04-07T09:11:05.150Z,100278.38
2023-04-07T09:13:31.716Z,100274.13
2023-04-07T09:16:01.745Z,100209.31
2023-04-07T09:18:28.457Z,100237.00
2023-04-07T09:21:14.493Z,100250.84
2023-04-07T09:23:42.662Z,100244.84
2023-04-07T09:26:18.106Z,100214.66
2023-04-07T09:28:45.636Z,100219.88
2023-04-07T09:31:12.298Z,100230.31
2023-04-07T09:33:38.923Z,100240.69
2023-04-07T09:36:06.485Z,100183.63
2023-04-07T09:38:34.882Z,100156.81
2023-04-07T09:41:08.511Z,100117.91
2023-04-07T09:43:39.033Z,100159.41
2023-04-07T09:46:09.720Z,100136.06
2023-04-07T09:48:36.490Z,100140.38
2023-04-07T09:51:16.317Z,100164.63
2023-04-07T09:53:50.700Z,100169.81
2023-04-07T09:56:19.574Z,100121.34
2023-04-07T09:58:47.245Z,100088.44
2023-04-07T10:01:14.594Z,100097.94
2023-04-07T10:03:41.610Z,100071.97
2023-04-07T10:06:08.254Z,100060.69
2023-04-07T10:08:36.411Z,100092.72
2023-04-07T10:11:03.855Z,100095.28
2023-04-07T10:13:31.417Z,100097.84
2023-04-07T10:15:58.715Z,100072.72
2023-04-07T10:18:28.501Z,100031.06
2023-04-07T10:20:56.251Z,100070.84
2023-04-07T10:23:26.358Z,100048.28
2023-04-07T10:25:54.947Z,100051.50
2023-04-07T10:28:23.885Z,100036.78
2023-04-07T10:30:50.833Z,100035.41
2023-04-07T10:33:18.609Z,99985.03
2023-04-07T10:36:05.917Z,99965.94
2023-04-07T10:38:33.118Z,99935.84
2023-04-07T10:40:59.855Z,99895.38
2023-04-07T10:43:44.945Z,99837.47
2023-04-07T10:46:11.491Z,99816.16
2023-04-07T10:48:38.514Z,99766.19
2023-04-07T10:51:05.107Z,99712.03
2023-04-07T10:53:32.320Z,99691.09
2023-04-07T10:55:59.428Z,99669.88
2023-04-07T10:58:26.253Z,99669.53
2023-04-07T11:01:08.392Z,99618.97
2023-04-07T11:03:36.801Z,99570.22
2023-04-07T11:06:03.601Z,99512.44
2023-04-07T11:08:36.924Z,99515.72
2023-04-07T11:11:09.231Z,99486.97
2023-04-07T11:13:42.411Z,99485.19
2023-04-07T11:16:09.627Z,99465.03
2023-04-07T11:18:37.420Z,99487.03
2023-04-07T11:21:05.846Z,99475.25
2023-04-07T11:23:39.137Z,99432.69
2023-04-07T11:26:05.868Z,99448.84
2023-04-07T11:28:32.833Z,99435.47
2023-04-07T11:31:00.404Z,99426.66
2023-04-07T11:33:28.134Z,99391.19
2023-04-07T11:35:56.268Z,99379.47
2023-04-07T11:38:24.133Z,99384.78
2023-04-07T11:40:50.900Z,99367.81
2023-04-07T11:43:18.569Z,99288.31
2023-04-07T11:45:45.186Z,99362.13
2023-04-07T11:48:28.066Z,99344.00
2023-04-07T11:50:54.842Z,99351.47
2023-04-07T11:53:32.535Z,99327.34
2023-04-07T11:56:16.785Z,99319.69
2023-04-07T11:58:50.412Z,99302.13
2023-04-07T12:01:17.354Z,99293.13
2023-04-07T12:04:00.531Z,99297.28
2023-04-07T12:06:30.948Z,99220.22
2023-04-07T12:08:57.570Z,99252.53
2023-04-07T12:11:25.407Z,99220.28
2023-04-07T12:13:52.076Z,99235.25
2023-04-07T12:16:19.297Z,99222.72
2023-04-07T12:18:45.966Z,99217.19
2023-04-07T12:21:12.604Z,99173.06
2023-04-07T12:23:39.165Z,99152.34
2023-04-07T12:26:06.090Z,99158.63
2023-04-07T12:28:32.647Z,99144.38
2023-04-07T12:30:59.165Z,99100.38
2023-04-07T12:33:25.928Z,99095.22
2023-04-07T12:35:52.590Z,99042.75
2023-04-07T12:38:19.162Z,99026.97
2023-04-07T12:40:45.932Z,98972.97
2023-04-07T12:43:12.768Z,98980.63
2023-04-07T12:45:39.432Z,98967.66
2023-04-07T12:48:06.127Z,98944.72
2023-04-07T12:50:32.845Z,98957.47
2023-04-07T12:52:59.979Z,98952.81
2023-04-07T12:55:26.574Z,98935.97
2023-04-07T12:57:53.183Z,98922.13
2023-04-07T13:00:19.740Z,98972.13
2023-04-07T13:02:46.598Z,98961.66
2023-04-07T13:05:13.353Z,98951.19
2023-04-07T13:07:39.905Z,98971.91
2023-04-07T13:10:08.280Z,98949.19
2023-04-07T13:12:35.098Z,98963.41
2023-04-07T13:15:02.116Z,98958.09
2023-04-07T13:17:29.223Z,98941.63
2023-04-07T13:19:56.341Z,98932.28
2023-04-07T13:22:24.477Z,98899.84
2023-04-07T13:24:51.453Z,98906.19
2023-04-07T13:27:18.016Z,98884.72
2023-04-07T13:29:47.531Z,98871.91
2023-04-07T13:32:14.999Z,98844.09
2023-04-07T13:34:41.734Z,98843.56
2023-04-07T13:37:08.341Z,98826.66
2023-04-07T13:39:34.889Z,98811.81
2023-04-07T13:42:01.446Z,98812.38
2023-04-07T13:44:28.644Z,98774.38
2023-04-07T13:47:01.706Z,98779.84
2023-04-07T13:49:29.118Z,98754.63
2023-04-07T13:51:55.630Z,98725.44
2023-04-07T13:54:22.689Z,98715.81
2023-04-07T13:56:49.355Z,98698.00
2023-04-07T13:59:16.069Z,98717.22
2023-04-07T14:01:42.689Z,98704.31
2023-04-07T14:04:09.553Z,98694.97
2023-04-07T14:06:37.309Z,98690.31
2023-04-07T14:09:04.220Z,98681.94
2023-04-07T14:11:30.977Z,98666.22
2023-04-07T14:13:57.626Z,98668.16
2023-04-07T14:16:25.232Z,98671.94
2023-04-07T14:18:51.887Z,98686.16
2023-04-07T14:21:18.530Z,98681.03
2023-04-07T14:23:45.234Z,98691.56
2023-04-07T14:26:12.313Z,98688.41
2023-04-07T14:28:38.862Z,98689.25
2023-04-07T14:31:06.078Z,98704.16
2023-04-07T14:33:32.886Z,98707.91
2023-04-07T14:35:59.555Z,98736.25
2023-04-07T14:38:26.216Z,98744.63
2023-04-07T14:40:53.045Z,98728.66
2023-04-07T14:43:19.782Z,98764.03
2023-04-07T14:45:46.357Z,98771.19
2023-04-07T14:48:13.728Z,98798.09
2023-04-07T14:50:40.489Z,98815.56
2023-04-07T14:53:07.128Z,98821.00
2023-04-07T14:55:34.400Z,98847.94
2023-04-07T14:58:00.979Z,98853.84
2023-04-07T15:00:28.840Z,98859.75
2023-04-07T15:02:56.049Z,98874.47
2023-04-07T15:05:23.068Z,98899.72
2023-04-07T15:07:52.821Z,98908.53
2023-04-07T15:10:20.046Z,98922.19
2023-04-07T15:12:47.434Z,98941.56
2023-04-07T15:15:14.316Z,98962.00
2023-04-07T15:17:44.510Z,98984.34
2023-04-07T15:20:13.296Z,98994.00
2023-04-07T15:22:40.300Z,99019.78
2023-04-07T15:25:07.069Z,99010.03
2023-04-07T15:27:33.741Z,99021.06
2023-04-07T15:30:00.711Z,99027.63
2023-04-07T15:32:27.337Z,99024.63
2023-04-07T15:34:53.927Z,99038.13
2023-04-07T15:37:20.575Z,99053.22
2023-04-07T15:39:48.128Z,99079.63
2023-04-07T15:42:14.748Z,99074.75
2023-04-07T15:44:41.431Z,99101.81
2023-04-07T15:47:08.876Z,99117.47
2023-04-07T15:49:37.360Z,99113.34
2023-04-07T15:52:06.928Z,99133.50
2023-04-07T15:54:33.576Z,99138.03
2023-04-07T15:57:00.183Z,99173.75
2023-04-07T15:59:29.393Z,99182.59
2023-04-07T16:01:56.185Z,99182.69
2023-04-07T16:04:22.864Z,99181.19
2023-04-07T16:06:49.662Z,99188.38
2023-04-07T16:09:16.398Z,99196.47
2023-04-07T16:11:42.958Z,99206.19
2023-04-07T16:14:09.567Z,99214.97
2023-04-07T16:16:37.087Z,99220.31
2023-04-07T16:19:03.857Z,99256.72
2023-04-07T16:21:31.489Z,99247.19
2023-04-07T16:23:58.081Z,99256.78
2023-04-07T16:26:24.675Z,99261.94
2023-04-07T16:28:51.281Z,99266.31
2023-04-07T16:31:17.918Z,99299.28
2023-04-07T16:33:44.516Z,99303.50
2023-04-07T16:36:11.165Z,99305.09
2023-04-07T16:38:37.753Z,99307.72
2023-04-07T16:41:06.849Z,99316.41
2023-04-07T16:43:33.433Z,99335.50
2023-04-07T16:46:00.682Z,99340.78
2023-04-07T16:48:27.390Z,99348.56
2023-04-07T16:50:53.964Z,99360.75
2023-04-07T16:53:21.432Z,99366.03
2023-04-07T16:55:48.252Z,99371.25
2023-04-07T16:58:19.004Z,99381.69
2023-04-07T17:00:45.885Z,99417.09
2023-04-07T17:03:15.669Z,99419.72
2023-04-07T17:05:44.586Z,99421.50
2023-04-07T17:08:11.678Z,99415.56
2023-04-07T17:10:38.241Z,99436.28
2023-04-07T17:13:04.843Z,99451.75
2023-04-07T17:15:31.456Z,99465.59
2023-04-07T17:17:58.716Z,99471.72
2023-04-07T17:20:25.384Z,99475.22
2023-04-07T17:22:52.228Z,99500.31
2023-04-07T17:25:19.159Z,99537.44
2023-04-07T17:27:47.937Z,99517.66
2023-04-07T17:30:14.736Z,99514.22
2023-04-07T17:32:41.580Z,99524.59
2023-04-07T17:35:08.354Z,99532.38
2023-04-07T17:37:34.856Z,99545.34
2023-04-07T17:40:01.795Z,99541.00
2023-04-07T17:42:28.424Z,99547.91
2023-04-07T17:44:55.114Z,99565.19
2023-04-07T17:47:21.709Z,99574.66
2023-04-07T17:49:48.506Z,99572.06
2023-04-07T17:52:15.136Z,99594.47
2023-04-07T17:54:42.191Z,99605.66
2023-04-07T17:57:09.064Z,99601.34
2023-04-07T17:59:35.689Z,99599.63
2023-04-07T18:02:08.962Z,99606.50
2023-04-07T18:04:36.885Z,99612.53
2023-04-07T18:07:03.790Z,99616.81
2023-04-07T18:09:30.572Z,99687.44
2023-04-07T18:11:57.140Z,99686.59
2023-04-07T18:14:23.813Z,99661.59
2023-04-07T18:16:50.482Z,99659.88
2023-04-07T18:19:17.520Z,99667.56
2023-04-07T18:21:44.152Z,99665.00
2023-04-07T18:24:11.463Z,99666.72
2023-04-07T18:26:38.106Z,99677.00
2023-04-07T18:29:04.793Z,99676.13
2023-04-07T18:31:32.655Z,99711.38
2023-04-07T18:33:59.272Z,99762.19
2023-04-07T18:36:27.405Z,99728.59
2023-04-07T18:38:53.981Z,99775.09
2023-04-07T18:41:20.682Z,99742.34
2023-04-07T18:43:47.728Z,99731.13
2023-04-07T18:46:14.524Z,99742.25
2023-04-07T18:48:43.995Z,99727.63
2023-04-07T18:51:11.363Z,99742.31
2023-04-07T18:53:38.295Z,99734.59
2023-04-07T18:56:04.943Z,99737.19
2023-04-07T18:58:31.892Z,99740.66
2023-04-07T19:00:58.547Z,99754.44
2023-04-07T19:03:25.316Z,99761.38
2023-04-07T19:05:52.769Z,99760.47
2023-04-07T19:08:19.508Z,99764.75
2023-04-07T19:10:46.268Z,99763.91
2023-04-07T19:13:13.103Z,99770.81
2023-04-07T19:15:40.882Z,99788.88
2023-04-07T19:18:10.441Z,99780.19
2023-04-07T19:20:37.113Z,99792.28
2023-04-07T19:23:03.849Z,99793.09
2023-04-07T19:25:31.341Z,99787.94
2023-04-07T19:27:58.227Z,99794.78
2023-04-07T19:30:24.957Z,99797.38
2023-04-07T19:32:51.604Z,99796.50
2023-04-07T19:35:18.439Z,99798.97
2023-04-07T19:37:47.407Z,99796.38
2023-04-07T19:40:14.675Z,99798.06
2023-04-07T19:42:41.808Z,99811.06
2023-04-07T19:45:08.739Z,99811.94
2023-04-07T19:47:35.976Z,99820.50
2023-04-07T19:50:03.410Z,99848.84
2023-04-07T19:52:31.090Z,99847.91
2023-04-07T19:54:58.165Z,99867.66
2023-04-07T19:57:24.780Z,99889.97
2023-04-07T19:59:51.791Z,99888.22
2023-04-07T20:02:18.478Z,99884.72
2023-04-07T20:04:45.198Z,99879.47
2023-04-07T20:07:11.774Z,99888.03
2023-04-07T20:09:39.424Z,99868.19
2023-04-07T20:12:06.069Z,99898.19
2023-04-07T20:14:32.766Z,99897.28
2023-04-07T20:16:59.473Z,99874.06
2023-04-07T20:19:26.076Z,99878.31
2023-04-07T20:21:52.676Z,99873.13
2023-04-07T20:24:19.273Z,99887.69
2023-04-07T20:26:46.047Z,99882.50
2023-04-07T20:29:12.698Z,99884.22
2023-04-07T20:31:41.031Z,99881.59
2023-04-07T20:34:07.647Z,99891.91
2023-04-07T20:36:34.283Z,99885.00
2023-04-07T20:39:00.902Z,99893.56
2023-04-07T20:41:27.816Z,99897.81
2023-04-07T20:43:55.045Z,99908.09
2023-04-07T20:46:21.796Z,99906.41
2023-04-07T20:48:48.509Z,99894.31
2023-04-07T20:51:15.188Z,99897.69
2023-04-07T20:53:41.737Z,99894.25
2023-04-07T20:56:08.324Z,99901.09
2023-04-07T20:58:34.911Z,99914.81
2023-04-07T21:01:01.826Z,99930.22
2023-04-07T21:03:29.171Z,99919.03
2023-04-07T21:05:57.146Z,99911.25
2023-04-07T21:08:24.615Z,99912.94
2023-04-07T21:10:52.441Z,99921.47
2023-04-07T21:13:19.294Z,99912.88
2023-04-07T21:15:46.016Z,99918.84
2023-04-07T21:18:12.585Z,99916.25
2023-04-07T21:20:39.252Z,99913.66
2023-04-07T21:23:07.730Z,99912.81
2023-04-07T21:25:36.395Z,99912.75
2023-04-07T21:28:03.041Z,99919.63
2023-04-07T21:30:29.637Z,99917.06
2023-04-07T21:32:56.198Z,99919.59
2023-04-07T21:35:22.854Z,99924.72
2023-04-07T21:37:49.426Z,99928.06
2023-04-07T21:40:16.004Z,99928.06
2023-04-07T21:42:42.610Z,99928.94
2023-04-07T21:45:09.646Z,99932.31
2023-04-07T21:47:36.667Z,99940.00
2023-04-07T21:50:03.787Z,99939.16
2023-04-07T21:52:30.398Z,99941.69
2023-04-07T21:54:59.354Z,99964.84
2023-04-07T21:57:25.905Z,99963.19
2023-04-07T21:59:52.490Z,99964.00
2023-04-07T22:02:19.120Z,99957.03
2023-04-07T22:04:45.840Z,99958.63
2023-04-07T22:07:12.444Z,99964.56
2023-04-07T22:09:39.076Z,99961.06
2023-04-07T22:12:05.757Z,99965.38
2023-04-07T22:14:32.299Z,99967.13
2023-04-07T22:16:58.944Z,99966.22
2023-04-07T22:19:25.678Z,99968.69
2023-04-07T22:21:52.254Z,99972.91
2023-04-07T22:24:18.853Z,99967.75
2023-04-07T22:26:45.404Z,99972.00
2023-04-07T22:29:12.053Z,99977.16
2023-04-07T22:31:38.871Z,99977.09
2023-04-07T22:34:05.628Z,99975.38
2023-04-07T22:36:34.315Z,99982.25
2023-04-07T22:39:00.923Z,99984.84
2023-04-07T22:41:27.753Z,99980.44
2023-04-07T22:43:54.280Z,99989.81
2023-04-07T22:46:20.931Z,99986.34
2023-04-07T22:48:49.134Z,99979.44
2023-04-07T22:51:15.974Z,99981.16
2023-04-07T22:53:42.543Z,99982.81
2023-04-07T22:56:09.120Z,99986.25
2023-04-07T22:58:35.945Z,99986.16
2023-04-07T23:01:02.533Z,99985.25
2023-04-07T23:03:29.243Z,99988.69
2023-04-07T23:05:55.996Z,99991.22
2023-04-07T23:08:22.615Z,99987.78
2023-04-07T23:10:49.176Z,100000.63
2023-04-07T23:13:15.902Z,100000.59
2023-04-07T23:15:42.623Z,99996.31
2023-04-07T23:18:09.185Z,99991.13
2023-04-07T23:20:36.050Z,99992.81
2023-04-07T23:23:02.743Z,99997.06
2023-04-07T23:25:29.470Z,99997.88
2023-04-07T23:27:56.225Z,100000.47
2023-04-07T23:30:22.820Z,100000.47
2023-04-07T23:32:49.452Z,100005.56
2023-04-07T23:35:16.228Z,100012.25
2023-04-07T23:37:43.243Z,100003.63
2023-04-07T23:40:10.492Z,100013.94
2023-04-07T23:42:37.013Z,100014.00
2023-04-07T23:45:03.642Z,100015.72
2023-04-07T23:47:30.388Z,100013.94
2023-04-07T23:49:57.005Z,100014.69
2023-04-07T23:52:24.964Z,100020.69
2023-04-07T23:54:51.539Z,100018.03
2023-04-07T23:57:18.127Z,100015.38
2023-04-07T23:59:44.968Z,100022.22
